sensor_id;sensor_type;location;lat;lon;timestamp;P1;durP1;ratioP1;P2;durP2;ratioP2
73089;SDS011;61269;49.450;8.610;2023-04-25T00:01:49;3.40;;;1.33;;
73089;SDS011;61269;49.450;8.610;2023-04-25T00:04:17;5.32;;;1.83;;
73089;SDS011;61269;49.450;8.610;2023-04-25T00:06:46;3.58;;;1.40;;
73089;SDS011;61269;49.450;8.610;2023-04-25T00:09:14;2.92;;;1.40;;
73089;SDS011;61269;49.450;8.610;2023-04-25T00:11:43;2.57;;;1.13;;
73089;SDS011;61269;49.450;8.610;2023-04-25T00:14:11;3.42;;;1.50;;
73089;SDS011;61269;49.450;8.610;2023-04-25T00:16:40;3.30;;;1.40;;
73089;SDS011;61269;49.450;8.610;2023-04-25T00:19:10;3.28;;;1.50;;
73089;SDS011;61269;49.450;8.610;2023-04-25T00:21:45;4.22;;;1.90;;
73089;SDS011;61269;49.450;8.610;2023-04-25T00:24:13;2.73;;;1.30;;
73089;SDS011;61269;49.450;8.610;2023-04-25T00:26:43;3.20;;;1.30;;
73089;SDS011;61269;49.450;8.610;2023-04-25T00:29:11;4.05;;;1.88;;
73089;SDS011;61269;49.450;8.610;2023-04-25T00:31:39;2.67;;;1.25;;
73089;SDS011;61269;49.450;8.610;2023-04-25T00:34:08;3.42;;;1.58;;
73089;SDS011;61269;49.450;8.610;2023-04-25T00:36:36;3.40;;;1.40;;
73089;SDS011;61269;49.450;8.610;2023-04-25T00:39:04;2.83;;;1.67;;
73089;SDS011;61269;49.450;8.610;2023-04-25T00:41:33;3.28;;;1.70;;
73089;SDS011;61269;49.450;8.610;2023-04-25T00:44:03;4.15;;;1.90;;
73089;SDS011;61269;49.450;8.610;2023-04-25T00:46:32;3.55;;;1.92;;
73089;SDS011;61269;49.450;8.610;2023-04-25T00:49:00;3.27;;;1.50;;
73089;SDS011;61269;49.450;8.610;2023-04-25T00:51:28;3.53;;;1.80;;
73089;SDS011;61269;49.450;8.610;2023-04-25T00:53:56;5.18;;;2.28;;
73089;SDS011;61269;49.450;8.610;2023-04-25T00:56:25;5.82;;;1.80;;
73089;SDS011;61269;49.450;8.610;2023-04-25T00:58:53;3.92;;;1.75;;
73089;SDS011;61269;49.450;8.610;2023-04-25T01:01:24;3.50;;;1.53;;
73089;SDS011;61269;49.450;8.610;2023-04-25T01:03:53;3.47;;;1.58;;
73089;SDS011;61269;49.450;8.610;2023-04-25T01:06:22;4.18;;;1.60;;
73089;SDS011;61269;49.450;8.610;2023-04-25T01:08:51;3.50;;;1.42;;
73089;SDS011;61269;49.450;8.610;2023-04-25T01:11:19;3.40;;;1.52;;
73089;SDS011;61269;49.450;8.610;2023-04-25T01:13:47;4.00;;;1.80;;
73089;SDS011;61269;49.450;8.610;2023-04-25T01:16:16;4.72;;;1.80;;
73089;SDS011;61269;49.450;8.610;2023-04-25T01:18:45;4.93;;;1.70;;
73089;SDS011;61269;49.450;8.610;2023-04-25T01:21:16;3.38;;;1.63;;
73089;SDS011;61269;49.450;8.610;2023-04-25T01:23:46;4.40;;;1.77;;
73089;SDS011;61269;49.450;8.610;2023-04-25T01:26:14;3.50;;;1.83;;
73089;SDS011;61269;49.450;8.610;2023-04-25T01:28:43;3.60;;;1.42;;
73089;SDS011;61269;49.450;8.610;2023-04-25T01:31:12;3.35;;;1.75;;
73089;SDS011;61269;49.450;8.610;2023-04-25T01:33:40;3.72;;;1.75;;
73089;SDS011;61269;49.450;8.610;2023-04-25T01:36:09;4.43;;;1.92;;
73089;SDS011;61269;49.450;8.610;2023-04-25T01:38:38;3.83;;;1.60;;
73089;SDS011;61269;49.450;8.610;2023-04-25T01:41:07;5.32;;;2.15;;
73089;SDS011;61269;49.450;8.610;2023-04-25T01:43:35;4.45;;;2.08;;
73089;SDS011;61269;49.450;8.610;2023-04-25T01:46:03;4.82;;;2.17;;
73089;SDS011;61269;49.450;8.610;2023-04-25T01:48:32;3.95;;;1.80;;
73089;SDS011;61269;49.450;8.610;2023-04-25T01:51:00;4.10;;;1.90;;
73089;SDS011;61269;49.450;8.610;2023-04-25T01:53:29;5.30;;;2.25;;
73089;SDS011;61269;49.450;8.610;2023-04-25T01:55:59;4.55;;;1.88;;
73089;SDS011;61269;49.450;8.610;2023-04-25T01:58:32;5.07;;;2.10;;
73089;SDS011;61269;49.450;8.610;2023-04-25T02:01:05;4.85;;;1.77;;
73089;SDS011;61269;49.450;8.610;2023-04-25T02:03:41;4.93;;;2.10;;
73089;SDS011;61269;49.450;8.610;2023-04-25T02:06:18;5.97;;;2.45;;
73089;SDS011;61269;49.450;8.610;2023-04-25T02:08:47;5.70;;;2.20;;
73089;SDS011;61269;49.450;8.610;2023-04-25T02:11:17;5.28;;;2.00;;
73089;SDS011;61269;49.450;8.610;2023-04-25T02:14:01;6.07;;;2.40;;
73089;SDS011;61269;49.450;8.610;2023-04-25T02:16:47;5.13;;;2.13;;
73089;SDS011;61269;49.450;8.610;2023-04-25T02:19:15;6.82;;;2.40;;
73089;SDS011;61269;49.450;8.610;2023-04-25T02:21:44;5.55;;;2.75;;
73089;SDS011;61269;49.450;8.610;2023-04-25T02:24:12;5.13;;;2.55;;
73089;SDS011;61269;49.450;8.610;2023-04-25T02:26:41;5.47;;;2.30;;
73089;SDS011;61269;49.450;8.610;2023-04-25T02:29:11;5.07;;;2.23;;
73089;SDS011;61269;49.450;8.610;2023-04-25T02:31:41;4.47;;;2.38;;
73089;SDS011;61269;49.450;8.610;2023-04-25T02:34:09;4.97;;;2.20;;
73089;SDS011;61269;49.450;8.610;2023-04-25T02:36:38;5.57;;;2.28;;
73089;SDS011;61269;49.450;8.610;2023-04-25T02:39:06;5.40;;;2.67;;
73089;SDS011;61269;49.450;8.610;2023-04-25T02:41:34;5.80;;;2.57;;
73089;SDS011;61269;49.450;8.610;2023-04-25T02:44:04;5.05;;;2.40;;
73089;SDS011;61269;49.450;8.610;2023-04-25T02:46:32;5.97;;;2.90;;
73089;SDS011;61269;49.450;8.610;2023-04-25T02:49:05;6.65;;;2.85;;
73089;SDS011;61269;49.450;8.610;2023-04-25T02:51:35;6.22;;;3.08;;
73089;SDS011;61269;49.450;8.610;2023-04-25T02:54:03;4.97;;;2.43;;
73089;SDS011;61269;49.450;8.610;2023-04-25T02:56:37;6.05;;;2.40;;
73089;SDS011;61269;49.450;8.610;2023-04-25T02:59:13;7.47;;;3.38;;
73089;SDS011;61269;49.450;8.610;2023-04-25T03:01:41;6.47;;;2.58;;
73089;SDS011;61269;49.450;8.610;2023-04-25T03:04:09;6.50;;;2.85;;
73089;SDS011;61269;49.450;8.610;2023-04-25T03:06:38;7.83;;;3.07;;
73089;SDS011;61269;49.450;8.610;2023-04-25T03:09:06;6.50;;;2.95;;
73089;SDS011;61269;49.450;8.610;2023-04-25T03:11:34;5.75;;;2.65;;
73089;SDS011;61269;49.450;8.610;2023-04-25T03:14:03;7.00;;;3.58;;
73089;SDS011;61269;49.450;8.610;2023-04-25T03:16:32;7.93;;;3.75;;
73089;SDS011;61269;49.450;8.610;2023-04-25T03:19:00;8.77;;;3.40;;
73089;SDS011;61269;49.450;8.610;2023-04-25T03:21:28;7.35;;;3.13;;
73089;SDS011;61269;49.450;8.610;2023-04-25T03:24:00;5.40;;;2.60;;
73089;SDS011;61269;49.450;8.610;2023-04-25T03:26:30;7.95;;;3.42;;
73089;SDS011;61269;49.450;8.610;2023-04-25T03:28:59;7.55;;;2.78;;
73089;SDS011;61269;49.450;8.610;2023-04-25T03:31:27;6.53;;;2.87;;
73089;SDS011;61269;49.450;8.610;2023-04-25T03:33:57;5.82;;;2.95;;
73089;SDS011;61269;49.450;8.610;2023-04-25T03:36:25;6.40;;;2.95;;
73089;SDS011;61269;49.450;8.610;2023-04-25T03:38:54;4.82;;;2.45;;
73089;SDS011;61269;49.450;8.610;2023-04-25T03:41:22;7.78;;;3.67;;
73089;SDS011;61269;49.450;8.610;2023-04-25T03:43:54;6.47;;;2.80;;
73089;SDS011;61269;49.450;8.610;2023-04-25T03:46:23;5.72;;;2.80;;
73089;SDS011;61269;49.450;8.610;2023-04-25T03:48:51;5.00;;;2.67;;
73089;SDS011;61269;49.450;8.610;2023-04-25T03:51:25;6.68;;;2.72;;
73089;SDS011;61269;49.450;8.610;2023-04-25T03:53:53;5.97;;;2.88;;
73089;SDS011;61269;49.450;8.610;2023-04-25T03:56:30;6.37;;;2.93;;
73089;SDS011;61269;49.450;8.610;2023-04-25T03:59:05;5.65;;;2.80;;
73089;SDS011;61269;49.450;8.610;2023-04-25T04:01:34;6.80;;;2.95;;
73089;SDS011;61269;49.450;8.610;2023-04-25T04:04:03;5.97;;;2.88;;
73089;SDS011;61269;49.450;8.610;2023-04-25T04:06:33;6.90;;;2.85;;
73089;SDS011;61269;49.450;8.610;2023-04-25T04:09:15;7.03;;;3.27;;
73089;SDS011;61269;49.450;8.610;2023-04-25T04:11:44;7.55;;;3.20;;
73089;SDS011;61269;49.450;8.610;2023-04-25T04:14:12;4.93;;;2.63;;
73089;SDS011;61269;49.450;8.610;2023-04-25T04:16:45;5.90;;;3.20;;
73089;SDS011;61269;49.450;8.610;2023-04-25T04:19:14;6.80;;;3.03;;
73089;SDS011;61269;49.450;8.610;2023-04-25T04:21:50;7.17;;;3.20;;
73089;SDS011;61269;49.450;8.610;2023-04-25T04:24:18;5.85;;;2.80;;
73089;SDS011;61269;49.450;8.610;2023-04-25T04:26:51;7.35;;;3.50;;
73089;SDS011;61269;49.450;8.610;2023-04-25T04:29:30;6.78;;;3.03;;
73089;SDS011;61269;49.450;8.610;2023-04-25T04:32:14;6.70;;;3.03;;
73089;SDS011;61269;49.450;8.610;2023-04-25T04:34:43;7.87;;;3.60;;
73089;SDS011;61269;49.450;8.610;2023-04-25T04:37:15;7.97;;;3.20;;
73089;SDS011;61269;49.450;8.610;2023-04-25T04:39:45;5.85;;;2.75;;
73089;SDS011;61269;49.450;8.610;2023-04-25T04:42:39;7.72;;;3.40;;
73089;SDS011;61269;49.450;8.610;2023-04-25T04:45:21;7.43;;;3.03;;
73089;SDS011;61269;49.450;8.610;2023-04-25T04:48:05;7.47;;;3.23;;
73089;SDS011;61269;49.450;8.610;2023-04-25T04:50:57;7.57;;;3.63;;
73089;SDS011;61269;49.450;8.610;2023-04-25T04:54:05;6.50;;;3.20;;
73089;SDS011;61269;49.450;8.610;2023-04-25T04:56:44;6.97;;;3.50;;
73089;SDS011;61269;49.450;8.610;2023-04-25T04:59:33;6.75;;;3.40;;
73089;SDS011;61269;49.450;8.610;2023-04-25T05:02:22;7.90;;;3.40;;
73089;SDS011;61269;49.450;8.610;2023-04-25T05:05:10;5.90;;;2.72;;
73089;SDS011;61269;49.450;8.610;2023-04-25T05:07:54;7.32;;;3.30;;
73089;SDS011;61269;49.450;8.610;2023-04-25T05:10:46;9.15;;;3.80;;
73089;SDS011;61269;49.450;8.610;2023-04-25T05:13:37;6.50;;;3.08;;
73089;SDS011;61269;49.450;8.610;2023-04-25T05:16:17;6.20;;;2.77;;
73089;SDS011;61269;49.450;8.610;2023-04-25T05:19:04;6.28;;;3.00;;
73089;SDS011;61269;49.450;8.610;2023-04-25T05:21:43;7.28;;;3.50;;
73089;SDS011;61269;49.450;8.610;2023-04-25T05:24:23;7.38;;;3.20;;
73089;SDS011;61269;49.450;8.610;2023-04-25T05:27:25;6.43;;;3.15;;
73089;SDS011;61269;49.450;8.610;2023-04-25T05:30:13;7.10;;;3.40;;
73089;SDS011;61269;49.450;8.610;2023-04-25T05:32:54;6.55;;;3.10;;
73089;SDS011;61269;49.450;8.610;2023-04-25T05:35:23;8.32;;;3.25;;
73089;SDS011;61269;49.450;8.610;2023-04-25T05:37:51;8.27;;;3.85;;
73089;SDS011;61269;49.450;8.610;2023-04-25T05:40:30;8.15;;;3.30;;
73089;SDS011;61269;49.450;8.610;2023-04-25T05:43:11;9.67;;;3.43;;
73089;SDS011;61269;49.450;8.610;2023-04-25T05:46:08;8.45;;;3.28;;
73089;SDS011;61269;49.450;8.610;2023-04-25T05:48:51;7.68;;;3.50;;
73089;SDS011;61269;49.450;8.610;2023-04-25T05:51:41;6.03;;;2.80;;
73089;SDS011;61269;49.450;8.610;2023-04-25T05:54:32;6.85;;;3.03;;
73089;SDS011;61269;49.450;8.610;2023-04-25T05:57:01;6.77;;;3.13;;
73089;SDS011;61269;49.450;8.610;2023-04-25T05:59:31;6.60;;;3.05;;
73089;SDS011;61269;49.450;8.610;2023-04-25T06:01:59;7.53;;;3.85;;
73089;SDS011;61269;49.450;8.610;2023-04-25T06:04:31;8.13;;;3.80;;
73089;SDS011;61269;49.450;8.610;2023-04-25T06:07:00;8.30;;;3.55;;
73089;SDS011;61269;49.450;8.610;2023-04-25T06:09:29;8.13;;;3.50;;
73089;SDS011;61269;49.450;8.610;2023-04-25T06:11:57;6.82;;;3.20;;
73089;SDS011;61269;49.450;8.610;2023-04-25T06:14:25;7.10;;;3.47;;
73089;SDS011;61269;49.450;8.610;2023-04-25T06:16:57;7.40;;;3.33;;
73089;SDS011;61269;49.450;8.610;2023-04-25T06:19:26;7.43;;;3.20;;
73089;SDS011;61269;49.450;8.610;2023-04-25T06:21:54;8.47;;;3.47;;
73089;SDS011;61269;49.450;8.610;2023-04-25T06:24:22;7.25;;;3.28;;
73089;SDS011;61269;49.450;8.610;2023-04-25T06:26:51;8.38;;;3.83;;
73089;SDS011;61269;49.450;8.610;2023-04-25T06:29:22;8.13;;;3.55;;
73089;SDS011;61269;49.450;8.610;2023-04-25T06:31:51;8.57;;;3.72;;
73089;SDS011;61269;49.450;8.610;2023-04-25T06:34:21;8.93;;;3.37;;
73089;SDS011;61269;49.450;8.610;2023-04-25T06:36:50;9.23;;;4.20;;
73089;SDS011;61269;49.450;8.610;2023-04-25T06:39:18;9.68;;;4.28;;
73089;SDS011;61269;49.450;8.610;2023-04-25T06:41:50;7.18;;;3.47;;
73089;SDS011;61269;49.450;8.610;2023-04-25T06:44:38;7.63;;;3.75;;
73089;SDS011;61269;49.450;8.610;2023-04-25T06:47:08;7.03;;;3.57;;
73089;SDS011;61269;49.450;8.610;2023-04-25T06:49:38;7.65;;;3.20;;
73089;SDS011;61269;49.450;8.610;2023-04-25T06:52:08;9.25;;;4.10;;
73089;SDS011;61269;49.450;8.610;2023-04-25T06:54:37;9.75;;;3.35;;
73089;SDS011;61269;49.450;8.610;2023-04-25T06:57:20;7.47;;;3.55;;
73089;SDS011;61269;49.450;8.610;2023-04-25T06:59:49;8.90;;;3.63;;
73089;SDS011;61269;49.450;8.610;2023-04-25T07:02:17;6.72;;;3.38;;
73089;SDS011;61269;49.450;8.610;2023-04-25T07:04:46;6.47;;;3.10;;
73089;SDS011;61269;49.450;8.610;2023-04-25T07:07:15;7.90;;;3.92;;
73089;SDS011;61269;49.450;8.610;2023-04-25T07:09:50;7.38;;;3.45;;
73089;SDS011;61269;49.450;8.610;2023-04-25T07:12:19;6.70;;;2.63;;
73089;SDS011;61269;49.450;8.610;2023-04-25T07:14:47;7.13;;;2.70;;
73089;SDS011;61269;49.450;8.610;2023-04-25T07:17:16;7.13;;;3.20;;
73089;SDS011;61269;49.450;8.610;2023-04-25T07:19:45;7.07;;;3.05;;
73089;SDS011;61269;49.450;8.610;2023-04-25T07:22:14;8.60;;;3.00;;
73089;SDS011;61269;49.450;8.610;2023-04-25T07:24:42;6.07;;;3.10;;
73089;SDS011;61269;49.450;8.610;2023-04-25T07:27:14;5.10;;;2.63;;
73089;SDS011;61269;49.450;8.610;2023-04-25T07:30:00;8.98;;;3.40;;
73089;SDS011;61269;49.450;8.610;2023-04-25T07:32:28;7.10;;;3.35;;
73089;SDS011;61269;49.450;8.610;2023-04-25T07:34:58;8.13;;;3.20;;
73089;SDS011;61269;49.450;8.610;2023-04-25T07:37:27;6.07;;;2.73;;
73089;SDS011;61269;49.450;8.610;2023-04-25T07:40:02;8.68;;;3.42;;
73089;SDS011;61269;49.450;8.610;2023-04-25T07:42:32;10.40;;;2.63;;
73089;SDS011;61269;49.450;8.610;2023-04-25T07:45:00;8.07;;;3.00;;
73089;SDS011;61269;49.450;8.610;2023-04-25T07:47:29;7.18;;;3.05;;
73089;SDS011;61269;49.450;8.610;2023-04-25T07:49:58;9.87;;;3.73;;
73089;SDS011;61269;49.450;8.610;2023-04-25T07:52:28;5.38;;;2.40;;
73089;SDS011;61269;49.450;8.610;2023-04-25T07:55:05;7.72;;;2.80;;
73089;SDS011;61269;49.450;8.610;2023-04-25T07:57:42;11.27;;;3.17;;
73089;SDS011;61269;49.450;8.610;2023-04-25T08:00:12;7.45;;;3.17;;
73089;SDS011;61269;49.450;8.610;2023-04-25T08:02:47;6.17;;;2.27;;
73089;SDS011;61269;49.450;8.610;2023-04-25T08:05:19;6.97;;;2.67;;
73089;SDS011;61269;49.450;8.610;2023-04-25T08:07:54;6.75;;;2.85;;
73089;SDS011;61269;49.450;8.610;2023-04-25T08:10:23;6.68;;;2.83;;
73089;SDS011;61269;49.450;8.610;2023-04-25T08:12:52;6.70;;;2.70;;
73089;SDS011;61269;49.450;8.610;2023-04-25T08:15:21;6.57;;;2.40;;
73089;SDS011;61269;49.450;8.610;2023-04-25T08:17:49;5.95;;;2.65;;
73089;SDS011;61269;49.450;8.610;2023-04-25T08:20:17;5.15;;;2.17;;
73089;SDS011;61269;49.450;8.610;2023-04-25T08:22:47;6.57;;;1.70;;
73089;SDS011;61269;49.450;8.610;2023-04-25T08:25:42;10.25;;;2.22;;
73089;SDS011;61269;49.450;8.610;2023-04-25T08:28:12;6.37;;;2.70;;
73089;SDS011;61269;49.450;8.610;2023-04-25T08:30:41;4.88;;;2.10;;
73089;SDS011;61269;49.450;8.610;2023-04-25T08:33:12;5.18;;;2.58;;
73089;SDS011;61269;49.450;8.610;2023-04-25T08:35:44;6.00;;;2.28;;
73089;SDS011;61269;49.450;8.610;2023-04-25T08:38:15;6.55;;;2.03;;
73089;SDS011;61269;49.450;8.610;2023-04-25T08:40:43;4.70;;;2.07;;
73089;SDS011;61269;49.450;8.610;2023-04-25T08:43:15;5.47;;;2.28;;
73089;SDS011;61269;49.450;8.610;2023-04-25T08:45:47;6.35;;;2.63;;
73089;SDS011;61269;49.450;8.610;2023-04-25T08:48:36;9.45;;;2.40;;
73089;SDS011;61269;49.450;8.610;2023-04-25T08:51:04;7.30;;;2.38;;
73089;SDS011;61269;49.450;8.610;2023-04-25T08:53:37;6.80;;;2.43;;
73089;SDS011;61269;49.450;8.610;2023-04-25T08:56:09;5.00;;;1.95;;
73089;SDS011;61269;49.450;8.610;2023-04-25T08:58:40;4.70;;;1.98;;
73089;SDS011;61269;49.450;8.610;2023-04-25T09:01:09;7.78;;;2.05;;
73089;SDS011;61269;49.450;8.610;2023-04-25T09:03:46;6.55;;;2.03;;
73089;SDS011;61269;49.450;8.610;2023-04-25T09:06:15;8.80;;;2.43;;
73089;SDS011;61269;49.450;8.610;2023-04-25T09:08:45;6.07;;;1.75;;
73089;SDS011;61269;49.450;8.610;2023-04-25T09:11:14;4.40;;;1.90;;
73089;SDS011;61269;49.450;8.610;2023-04-25T09:13:42;4.75;;;2.17;;
73089;SDS011;61269;49.450;8.610;2023-04-25T09:16:42;6.65;;;2.42;;
73089;SDS011;61269;49.450;8.610;2023-04-25T09:19:36;5.43;;;2.07;;
73089;SDS011;61269;49.450;8.610;2023-04-25T09:22:16;5.50;;;1.98;;
73089;SDS011;61269;49.450;8.610;2023-04-25T09:24:49;5.72;;;2.20;;
73089;SDS011;61269;49.450;8.610;2023-04-25T09:27:20;4.32;;;1.92;;
73089;SDS011;61269;49.450;8.610;2023-04-25T09:29:56;7.20;;;2.22;;
73089;SDS011;61269;49.450;8.610;2023-04-25T09:32:27;5.93;;;2.10;;
73089;SDS011;61269;49.450;8.610;2023-04-25T09:34:57;4.03;;;1.90;;
73089;SDS011;61269;49.450;8.610;2023-04-25T09:37:28;6.05;;;2.03;;
73089;SDS011;61269;49.450;8.610;2023-04-25T09:40:31;5.38;;;1.90;;
73089;SDS011;61269;49.450;8.610;2023-04-25T09:43:10;5.35;;;2.45;;
73089;SDS011;61269;49.450;8.610;2023-04-25T09:45:46;4.50;;;1.73;;
73089;SDS011;61269;49.450;8.610;2023-04-25T09:48:16;3.33;;;1.60;;
73089;SDS011;61269;49.450;8.610;2023-04-25T09:50:51;6.70;;;1.90;;
73089;SDS011;61269;49.450;8.610;2023-04-25T09:53:32;4.32;;;2.20;;
73089;SDS011;61269;49.450;8.610;2023-04-25T09:56:11;5.95;;;2.10;;
73089;SDS011;61269;49.450;8.610;2023-04-25T09:58:41;6.33;;;1.77;;
73089;SDS011;61269;49.450;8.610;2023-04-25T10:01:10;5.18;;;1.90;;
73089;SDS011;61269;49.450;8.610;2023-04-25T10:03:52;4.95;;;2.00;;
73089;SDS011;61269;49.450;8.610;2023-04-25T10:06:35;4.50;;;2.05;;
73089;SDS011;61269;49.450;8.610;2023-04-25T10:09:05;4.35;;;1.83;;
73089;SDS011;61269;49.450;8.610;2023-04-25T10:11:37;6.40;;;1.70;;
73089;SDS011;61269;49.450;8.610;2023-04-25T10:14:06;3.30;;;1.70;;
73089;SDS011;61269;49.450;8.610;2023-04-25T10:16:34;4.28;;;1.77;;
73089;SDS011;61269;49.450;8.610;2023-04-25T10:19:03;4.13;;;1.90;;
73089;SDS011;61269;49.450;8.610;2023-04-25T10:21:32;4.45;;;1.73;;
73089;SDS011;61269;49.450;8.610;2023-04-25T10:24:01;4.00;;;1.67;;
73089;SDS011;61269;49.450;8.610;2023-04-25T10:26:30;4.07;;;1.80;;
73089;SDS011;61269;49.450;8.610;2023-04-25T10:29:00;6.03;;;1.95;;
73089;SDS011;61269;49.450;8.610;2023-04-25T10:31:29;5.03;;;2.10;;
73089;SDS011;61269;49.450;8.610;2023-04-25T10:33:59;4.70;;;2.08;;
73089;SDS011;61269;49.450;8.610;2023-04-25T10:36:27;4.20;;;1.57;;
73089;SDS011;61269;49.450;8.610;2023-04-25T10:39:02;5.72;;;1.92;;
73089;SDS011;61269;49.450;8.610;2023-04-25T10:41:45;5.38;;;1.85;;
73089;SDS011;61269;49.450;8.610;2023-04-25T10:44:16;6.93;;;1.98;;
73089;SDS011;61269;49.450;8.610;2023-04-25T10:46:44;9.45;;;2.17;;
73089;SDS011;61269;49.450;8.610;2023-04-25T10:49:28;6.00;;;2.30;;
73089;SDS011;61269;49.450;8.610;2023-04-25T10:52:12;7.00;;;1.95;;
73089;SDS011;61269;49.450;8.610;2023-04-25T10:54:42;7.75;;;2.28;;
73089;SDS011;61269;49.450;8.610;2023-04-25T10:57:29;4.10;;;2.00;;
73089;SDS011;61269;49.450;8.610;2023-04-25T11:00:01;5.80;;;2.13;;
73089;SDS011;61269;49.450;8.610;2023-04-25T11:02:45;5.10;;;1.90;;
73089;SDS011;61269;49.450;8.610;2023-04-25T11:05:16;4.60;;;1.92;;
73089;SDS011;61269;49.450;8.610;2023-04-25T11:07:49;9.02;;;2.47;;
73089;SDS011;61269;49.450;8.610;2023-04-25T11:10:33;6.15;;;2.25;;
73089;SDS011;61269;49.450;8.610;2023-04-25T11:13:02;3.30;;;1.70;;
73089;SDS011;61269;49.450;8.610;2023-04-25T11:15:33;6.07;;;1.80;;
73089;SDS011;61269;49.450;8.610;2023-04-25T11:18:01;6.32;;;2.25;;
73089;SDS011;61269;49.450;8.610;2023-04-25T11:20:29;5.30;;;2.40;;
73089;SDS011;61269;49.450;8.610;2023-04-25T11:22:58;4.65;;;1.73;;
73089;SDS011;61269;49.450;8.610;2023-04-25T11:25:27;4.32;;;1.90;;
73089;SDS011;61269;49.450;8.610;2023-04-25T11:27:57;4.63;;;1.93;;
73089;SDS011;61269;49.450;8.610;2023-04-25T11:30:27;4.43;;;1.63;;
73089;SDS011;61269;49.450;8.610;2023-04-25T11:32:58;3.83;;;1.50;;
73089;SDS011;61269;49.450;8.610;2023-04-25T11:35:26;4.43;;;1.83;;
73089;SDS011;61269;49.450;8.610;2023-04-25T11:37:54;4.32;;;1.52;;
73089;SDS011;61269;49.450;8.610;2023-04-25T11:40:23;6.57;;;1.77;;
73089;SDS011;61269;49.450;8.610;2023-04-25T11:42:51;4.10;;;1.52;;
73089;SDS011;61269;49.450;8.610;2023-04-25T11:45:21;4.63;;;1.67;;
73089;SDS011;61269;49.450;8.610;2023-04-25T11:47:50;5.25;;;1.70;;
73089;SDS011;61269;49.450;8.610;2023-04-25T11:50:20;3.85;;;1.83;;
73089;SDS011;61269;49.450;8.610;2023-04-25T11:52:48;3.50;;;1.50;;
73089;SDS011;61269;49.450;8.610;2023-04-25T11:55:18;7.40;;;1.50;;
73089;SDS011;61269;49.450;8.610;2023-04-25T11:57:47;4.53;;;1.70;;
73089;SDS011;61269;49.450;8.610;2023-04-25T12:00:17;4.78;;;1.50;;
73089;SDS011;61269;49.450;8.610;2023-04-25T12:02:47;3.10;;;1.50;;
73089;SDS011;61269;49.450;8.610;2023-04-25T12:05:19;5.27;;;1.70;;
73089;SDS011;61269;49.450;8.610;2023-04-25T12:07:54;3.38;;;1.60;;
73089;SDS011;61269;49.450;8.610;2023-04-25T12:10:23;4.55;;;1.80;;
73089;SDS011;61269;49.450;8.610;2023-04-25T12:12:52;3.15;;;1.35;;
73089;SDS011;61269;49.450;8.610;2023-04-25T12:15:23;4.18;;;1.60;;
73089;SDS011;61269;49.450;8.610;2023-04-25T12:17:53;4.00;;;1.70;;
73089;SDS011;61269;49.450;8.610;2023-04-25T12:20:24;5.18;;;1.95;;
73089;SDS011;61269;49.450;8.610;2023-04-25T12:22:53;4.88;;;1.77;;
73089;SDS011;61269;49.450;8.610;2023-04-25T12:25:35;4.00;;;1.70;;
73089;SDS011;61269;49.450;8.610;2023-04-25T12:28:11;5.15;;;1.67;;
73089;SDS011;61269;49.450;8.610;2023-04-25T12:33:25;4.45;;;1.90;;
73089;SDS011;61269;49.450;8.610;2023-04-25T12:35:55;4.90;;;2.17;;
73089;SDS011;61269;49.450;8.610;2023-04-25T12:38:25;6.60;;;2.13;;
73089;SDS011;61269;49.450;8.610;2023-04-25T12:40:54;4.95;;;1.85;;
73089;SDS011;61269;49.450;8.610;2023-04-25T12:43:22;3.30;;;1.67;;
73089;SDS011;61269;49.450;8.610;2023-04-25T12:45:51;4.25;;;1.88;;
73089;SDS011;61269;49.450;8.610;2023-04-25T12:48:20;4.20;;;1.98;;
73089;SDS011;61269;49.450;8.610;2023-04-25T12:50:49;3.75;;;1.50;;
73089;SDS011;61269;49.450;8.610;2023-04-25T12:53:21;4.55;;;1.65;;
73089;SDS011;61269;49.450;8.610;2023-04-25T12:55:50;3.97;;;1.90;;
73089;SDS011;61269;49.450;8.610;2023-04-25T12:58:18;4.70;;;2.05;;
73089;SDS011;61269;49.450;8.610;2023-04-25T13:00:47;5.68;;;2.20;;
73089;SDS011;61269;49.450;8.610;2023-04-25T13:03:15;4.78;;;1.67;;
73089;SDS011;61269;49.450;8.610;2023-04-25T13:05:44;4.18;;;2.15;;
73089;SDS011;61269;49.450;8.610;2023-04-25T13:08:13;5.33;;;2.13;;
73089;SDS011;61269;49.450;8.610;2023-04-25T13:10:42;4.53;;;2.15;;
73089;SDS011;61269;49.450;8.610;2023-04-25T13:13:10;4.68;;;2.20;;
73089;SDS011;61269;49.450;8.610;2023-04-25T13:15:38;5.30;;;2.10;;
73089;SDS011;61269;49.450;8.610;2023-04-25T13:18:06;7.20;;;2.00;;
73089;SDS011;61269;49.450;8.610;2023-04-25T13:20:35;6.47;;;1.83;;
73089;SDS011;61269;49.450;8.610;2023-04-25T13:23:03;5.25;;;1.80;;
73089;SDS011;61269;49.450;8.610;2023-04-25T13:25:31;4.32;;;2.03;;
73089;SDS011;61269;49.450;8.610;2023-04-25T13:28:01;5.28;;;1.90;;
73089;SDS011;61269;49.450;8.610;2023-04-25T13:30:29;5.18;;;1.85;;
73089;SDS011;61269;49.450;8.610;2023-04-25T13:32:57;4.37;;;2.00;;
73089;SDS011;61269;49.450;8.610;2023-04-25T13:35:30;4.22;;;1.92;;
73089;SDS011;61269;49.450;8.610;2023-04-25T13:37:58;4.97;;;2.15;;
73089;SDS011;61269;49.450;8.610;2023-04-25T13:40:27;5.10;;;1.95;;
73089;SDS011;61269;49.450;8.610;2023-04-25T13:42:55;5.25;;;1.83;;
73089;SDS011;61269;49.450;8.610;2023-04-25T13:45:25;4.90;;;2.07;;
73089;SDS011;61269;49.450;8.610;2023-04-25T13:47:53;4.13;;;2.13;;
73089;SDS011;61269;49.450;8.610;2023-04-25T13:50:22;4.55;;;2.10;;
73089;SDS011;61269;49.450;8.610;2023-04-25T13:52:50;7.15;;;2.38;;
73089;SDS011;61269;49.450;8.610;2023-04-25T13:55:18;5.97;;;2.30;;
73089;SDS011;61269;49.450;8.610;2023-04-25T13:57:46;5.30;;;2.27;;
73089;SDS011;61269;49.450;8.610;2023-04-25T14:00:15;4.78;;;1.92;;
73089;SDS011;61269;49.450;8.610;2023-04-25T14:02:45;5.18;;;2.00;;
73089;SDS011;61269;49.450;8.610;2023-04-25T14:05:16;5.82;;;2.08;;
73089;SDS011;61269;49.450;8.610;2023-04-25T14:07:44;5.63;;;2.00;;
73089;SDS011;61269;49.450;8.610;2023-04-25T14:10:12;6.10;;;2.37;;
73089;SDS011;61269;49.450;8.610;2023-04-25T14:12:40;3.92;;;1.92;;
73089;SDS011;61269;49.450;8.610;2023-04-25T14:15:09;5.15;;;2.10;;
73089;SDS011;61269;49.450;8.610;2023-04-25T14:17:38;4.50;;;2.33;;
73089;SDS011;61269;49.450;8.610;2023-04-25T14:20:08;5.45;;;1.98;;
73089;SDS011;61269;49.450;8.610;2023-04-25T14:22:37;6.20;;;2.23;;
73089;SDS011;61269;49.450;8.610;2023-04-25T14:25:09;6.07;;;2.63;;
73089;SDS011;61269;49.450;8.610;2023-04-25T14:27:37;4.45;;;2.00;;
73089;SDS011;61269;49.450;8.610;2023-04-25T14:30:06;7.32;;;2.05;;
73089;SDS011;61269;49.450;8.610;2023-04-25T14:32:35;3.72;;;1.80;;
73089;SDS011;61269;49.450;8.610;2023-04-25T14:35:04;5.57;;;1.53;;
73089;SDS011;61269;49.450;8.610;2023-04-25T14:37:35;3.55;;;1.67;;
73089;SDS011;61269;49.450;8.610;2023-04-25T14:40:03;2.50;;;1.40;;
73089;SDS011;61269;49.450;8.610;2023-04-25T14:42:34;5.63;;;1.95;;
73089;SDS011;61269;49.450;8.610;2023-04-25T14:45:02;3.33;;;1.73;;
73089;SDS011;61269;49.450;8.610;2023-04-25T14:47:31;3.93;;;1.57;;
73089;SDS011;61269;49.450;8.610;2023-04-25T14:49:59;3.88;;;2.05;;
73089;SDS011;61269;49.450;8.610;2023-04-25T14:52:28;8.75;;;2.35;;
73089;SDS011;61269;49.450;8.610;2023-04-25T14:54:59;4.10;;;1.80;;
73089;SDS011;61269;49.450;8.610;2023-04-25T14:57:31;8.35;;;2.13;;
73089;SDS011;61269;49.450;8.610;2023-04-25T14:59:59;3.37;;;1.50;;
73089;SDS011;61269;49.450;8.610;2023-04-25T15:02:29;7.05;;;2.22;;
73089;SDS011;61269;49.450;8.610;2023-04-25T15:04:58;6.07;;;2.20;;
73089;SDS011;61269;49.450;8.610;2023-04-25T15:07:27;5.30;;;2.03;;
73089;SDS011;61269;49.450;8.610;2023-04-25T15:09:55;6.07;;;2.38;;
73089;SDS011;61269;49.450;8.610;2023-04-25T15:12:24;4.30;;;1.73;;
73089;SDS011;61269;49.450;8.610;2023-04-25T15:14:55;4.53;;;2.17;;
73089;SDS011;61269;49.450;8.610;2023-04-25T15:17:23;6.90;;;2.33;;
73089;SDS011;61269;49.450;8.610;2023-04-25T15:19:51;5.75;;;2.15;;